Ruoqiang, China
Current Conditions -  °F | °C
As of 8:00 PM on Monday 24 Nov 2014 (Local Time) from ZWWW Reporting Station
Smoke Smoke  
Wind Chill: 28°   Ceiling: Unl
Heat Index: 28°   Visibility: 3mi
Dew Point: 21°   Wind: 2mph
Humidity: 74%   Direction: NA
Pressure: 29.8"   Gusts: NA
Location:  39.03°N, 88.17°E
Report Text: ZWWW 241200Z VRB01MPS 5000 FU NSC M02/M06 Q1009 NOSIG
Loading
Personal Weather Stations






























Interactive Weather Map New forecast layout! Learn more

10-Day Weather Forecast

Advertisements
Track Severe Weather on mobile